Time;durP1;ratioP1;P1;durP2;ratioP2;P2;SDS_P1;SDS_P2;PMS_P1;PMS_P2;Temp;Humidity;BMP_temperature;BMP_pressure;BME280_temperature;BME280_humidity;BME280_pressure;Samples;Min_cycle;Max_cycle;Signal;HPM_P1;HPM_P2
2021/03/25 00:00:11;;;;;;;40.03;20.50;;;;;;;;;;5073906;28;20538;-74
2021/03/25 00:03:19;;;;;;;33.03;17.63;;;;;;;;;;5072373;28;20614;-74
2021/03/25 00:06:25;;;;;;;26.77;15.50;;;;;;;;;;5091831;28;20609;-75
2021/03/25 00:09:34;;;;;;;23.27;13.40;;;;;;;;;;5080169;28;21158;-75
2021/03/25 00:12:38;;;;;;;26.47;14.10;;;;;;;;;;5086735;28;20648;-75
2021/03/25 00:15:44;;;;;;;25.50;12.87;;;;;;;;;;5092817;28;20533;-75
2021/03/25 00:18:48;;;;;;;21.40;12.67;;;;;;;;;;5096185;28;20557;-75
2021/03/25 00:21:53;;;;;;;20.80;11.63;;;;;;;;;;5075484;28;20652;-74
2021/03/25 00:24:57;;;;;;;19.27;11.37;;;;;;;;;;5075731;28;20605;-75
2021/03/25 00:28:02;;;;;;;18.47;10.77;;;;;;;;;;5076067;28;20538;-75
2021/03/25 00:31:06;;;;;;;17.97;10.73;;;;;;;;;;5064325;28;20597;-74
2021/03/25 00:34:11;;;;;;;21.37;11.53;;;;;;;;;;5095245;28;20963;-74
2021/03/25 00:37:15;;;;;;;18.73;11.67;;;;;;;;;;5096398;28;20541;-75
2021/03/25 00:40:20;;;;;;;21.43;12.03;;;;;;;;;;5094445;28;20888;-75
2021/03/25 00:43:24;;;;;;;24.00;11.57;;;;;;;;;;5095686;28;20584;-75
2021/03/25 00:46:28;;;;;;;21.67;11.57;;;;;;;;;;5093671;28;20579;-74
2021/03/25 00:49:34;;;;;;;24.07;12.67;;;;;;;;;;5075584;28;20897;-75
2021/03/25 00:52:38;;;;;;;23.00;11.90;;;;;;;;;;5068993;28;20996;-75
2021/03/25 00:55:43;;;;;;;21.37;12.13;;;;;;;;;;5095649;28;20544;-76
2021/03/25 00:58:47;;;;;;;17.60;10.70;;;;;;;;;;5075791;28;20586;-75
2021/03/25 01:01:51;;;;;;;18.47;11.07;;;;;;;;;;5079230;28;20648;-75
2021/03/25 01:04:55;;;;;;;23.70;9.77;;;;;;;;;;5095257;28;20640;-75
2021/03/25 01:07:59;;;;;;;23.63;11.40;;;;;;;;;;5093821;28;20584;-74
2021/03/25 01:11:13;;;;;;;19.50;10.83;;;;;;;;;;5086291;28;20586;-74
2021/03/25 01:14:22;;;;;;;20.63;11.73;;;;;;;;;;5062959;28;20534;-75
2021/03/25 01:17:26;;;;;;;19.07;11.33;;;;;;;;;;5051618;28;20538;-75
2021/03/25 01:20:35;;;;;;;23.27;11.90;;;;;;;;;;5066207;28;20593;-75
2021/03/25 01:23:51;;;;;;;22.23;10.97;;;;;;;;;;5083907;28;20633;-74
2021/03/25 01:26:55;;;;;;;21.03;10.67;;;;;;;;;;5082376;28;20604;-75
2021/03/25 01:30:01;;;;;;;19.57;10.97;;;;;;;;;;5086327;28;20581;-74
2021/03/25 01:33:10;;;;;;;17.57;10.50;;;;;;;;;;5063455;28;20649;-75
2021/03/25 01:36:14;;;;;;;19.63;11.07;;;;;;;;;;5075946;28;21159;-75
2021/03/25 01:39:19;;;;;;;19.43;11.73;;;;;;;;;;5094516;28;20573;-75
2021/03/25 01:42:28;;;;;;;19.43;10.33;;;;;;;;;;5093414;28;20667;-75
2021/03/25 01:45:37;;;;;;;19.90;10.53;;;;;;;;;;5062154;28;20965;-75
2021/03/25 01:48:46;;;;;;;19.10;10.47;;;;;;;;;;5062270;28;20539;-75
2021/03/25 01:52:01;;;;;;;18.03;10.20;;;;;;;;;;5051819;28;20641;-74
2021/03/25 01:55:30;;;;;;;18.73;10.00;;;;;;;;;;5074268;28;20539;-75
2021/03/25 01:58:50;;;;;;;16.07;9.17;;;;;;;;;;5074044;28;20546;-74
2021/03/25 02:02:04;;;;;;;15.63;8.93;;;;;;;;;;5094336;28;20620;-75
2021/03/25 02:05:21;;;;;;;14.53;8.47;;;;;;;;;;5061500;28;20597;-75
2021/03/25 02:08:44;;;;;;;16.17;8.87;;;;;;;;;;5073281;28;21143;-75
2021/03/25 02:12:23;;;;;;;18.30;9.30;;;;;;;;;;5061531;28;20637;-74
2021/03/25 02:15:49;;;;;;;15.43;7.90;;;;;;;;;;5073987;28;20538;-75
2021/03/25 02:19:27;;;;;;;18.83;8.93;;;;;;;;;;5074615;28;20585;-74
2021/03/25 02:22:52;;;;;;;16.70;9.43;;;;;;;;;;5050938;28;20602;-74
2021/03/25 02:26:20;;;;;;;13.80;8.60;;;;;;;;;;5081328;28;20612;-75
2021/03/25 02:29:37;;;;;;;14.10;7.80;;;;;;;;;;5067058;28;20927;-74
2021/03/25 02:32:58;;;;;;;16.97;8.93;;;;;;;;;;5075914;28;20645;-74
2021/03/25 02:36:12;;;;;;;13.33;8.50;;;;;;;;;;5070869;28;20537;-75
2021/03/25 02:43:48;;;;;;;15.50;8.47;;;;;;;;;;5072732;28;20574;-75
2021/03/25 02:46:58;;;;;;;15.37;8.47;;;;;;;;;;5061141;28;20542;-75
2021/03/25 02:50:09;;;;;;;16.17;8.97;;;;;;;;;;5061027;28;20554;-75
2021/03/25 02:53:26;;;;;;;14.67;8.77;;;;;;;;;;5068743;28;20644;-75
2021/03/25 02:56:53;;;;;;;13.00;8.37;;;;;;;;;;5080620;28;20709;-74
2021/03/25 03:00:01;;;;;;;16.87;8.87;;;;;;;;;;5073064;28;20538;-75
2021/03/25 03:03:14;;;;;;;14.50;8.67;;;;;;;;;;5055419;28;21229;-74
2021/03/25 03:07:05;;;;;;;15.37;8.87;;;;;;;;;;5072633;28;20555;-75
2021/03/25 03:10:16;;;;;;;14.20;8.37;;;;;;;;;;5063934;28;20612;-75
2021/03/25 03:13:26;;;;;;;14.17;8.20;;;;;;;;;;5060822;28;20594;-75
2021/03/25 03:16:42;;;;;;;12.47;8.50;;;;;;;;;;5060658;28;20585;-74
2021/03/25 03:19:54;;;;;;;16.53;8.80;;;;;;;;;;5077952;28;20604;-75
2021/03/25 03:22:59;;;;;;;13.47;8.67;;;;;;;;;;5060458;28;20614;-75
2021/03/25 03:26:13;;;;;;;13.50;8.93;;;;;;;;;;5072711;28;20605;-75
2021/03/25 03:29:18;;;;;;;14.30;8.07;;;;;;;;;;5072878;28;20601;-74
2021/03/25 03:32:41;;;;;;;17.60;8.50;;;;;;;;;;5079908;28;20648;-74
2021/03/25 03:35:51;;;;;;;12.67;8.17;;;;;;;;;;5064135;28;20582;-74
2021/03/25 03:39:07;;;;;;;14.73;8.90;;;;;;;;;;5046911;28;20616;-74
2021/03/25 03:42:16;;;;;;;15.13;8.50;;;;;;;;;;5057623;28;21221;-74
2021/03/25 03:45:23;;;;;;;12.40;7.77;;;;;;;;;;5049351;28;20582;-75
2021/03/25 03:48:42;;;;;;;15.37;8.93;;;;;;;;;;5066543;28;20589;-75
2021/03/25 03:51:51;;;;;;;15.10;8.93;;;;;;;;;;5069131;28;20649;-74
2021/03/25 03:54:56;;;;;;;14.63;9.00;;;;;;;;;;5053020;28;20542;-75
2021/03/25 03:58:23;;;;;;;16.47;8.60;;;;;;;;;;5077245;28;20593;-75
2021/03/25 04:01:39;;;;;;;12.47;7.93;;;;;;;;;;5071942;28;20644;-75
2021/03/25 04:05:17;;;;;;;13.13;7.97;;;;;;;;;;5084249;28;20600;-75
2021/03/25 04:08:45;;;;;;;14.63;7.90;;;;;;;;;;5077950;28;20586;-74
2021/03/25 04:12:00;;;;;;;14.17;7.90;;;;;;;;;;5063968;28;20997;-74
2021/03/25 04:15:17;;;;;;;11.47;7.40;;;;;;;;;;5064278;28;20539;-75
2021/03/25 04:18:34;;;;;;;15.90;8.27;;;;;;;;;;5063770;28;21124;-75
2021/03/25 04:21:47;;;;;;;12.77;8.57;;;;;;;;;;5077085;28;20617;-74
2021/03/25 04:25:13;;;;;;;11.13;7.27;;;;;;;;;;5083807;28;20597;-75
2021/03/25 04:28:33;;;;;;;14.40;7.07;;;;;;;;;;5080514;28;20586;-74
2021/03/25 04:31:37;;;;;;;12.90;6.93;;;;;;;;;;5075968;28;20621;-75
2021/03/25 04:34:41;;;;;;;11.03;7.03;;;;;;;;;;5075881;28;20542;-75
2021/03/25 04:37:46;;;;;;;11.13;7.20;;;;;;;;;;5063626;28;21068;-75
2021/03/25 04:40:55;;;;;;;11.83;7.20;;;;;;;;;;5063186;28;20929;-75
2021/03/25 04:44:02;;;;;;;12.53;7.00;;;;;;;;;;5075435;28;21194;-74
2021/03/25 04:47:16;;;;;;;12.03;7.17;;;;;;;;;;5063137;28;20585;-75
2021/03/25 04:50:24;;;;;;;11.63;6.53;;;;;;;;;;5082449;28;20589;-74
2021/03/25 04:53:33;;;;;;;11.77;6.73;;;;;;;;;;5095545;28;20593;-75
2021/03/25 04:56:38;;;;;;;11.10;5.87;;;;;;;;;;5062913;28;20538;-75
2021/03/25 04:59:42;;;;;;;10.07;5.73;;;;;;;;;;5076041;28;20585;-74
2021/03/25 05:02:46;;;;;;;11.43;6.13;;;;;;;;;;5091067;28;20649;-74
2021/03/25 05:05:55;;;;;;;8.27;6.23;;;;;;;;;;5051920;28;20936;-75
2021/03/25 05:09:00;;;;;;;9.30;6.17;;;;;;;;;;5068772;28;20613;-75
2021/03/25 05:12:05;;;;;;;12.03;6.13;;;;;;;;;;5095382;28;20620;-75
2021/03/25 05:15:13;;;;;;;7.23;5.07;;;;;;;;;;5094956;28;20565;-75
2021/03/25 05:18:28;;;;;;;7.47;5.43;;;;;;;;;;5071512;28;20539;-74
2021/03/25 05:21:42;;;;;;;14.30;5.70;;;;;;;;;;5051085;28;20625;-75
2021/03/25 05:24:53;;;;;;;10.27;5.33;;;;;;;;;;5088827;28;20632;-74
2021/03/25 05:28:12;;;;;;;11.77;5.03;;;;;;;;;;5071342;28;20538;-74
2021/03/25 05:31:17;;;;;;;7.67;4.60;;;;;;;;;;5062192;28;20657;-74
2021/03/25 05:34:22;;;;;;;6.90;4.37;;;;;;;;;;5068308;28;20616;-74
2021/03/25 05:37:27;;;;;;;9.37;5.10;;;;;;;;;;5074622;28;20550;-74
2021/03/25 05:40:39;;;;;;;13.40;5.50;;;;;;;;;;5064687;28;20617;-73
2021/03/25 05:44:02;;;;;;;8.83;5.70;;;;;;;;;;5094757;28;20593;-73
2021/03/25 05:47:31;;;;;;;11.77;6.70;;;;;;;;;;5094421;28;21154;-73
2021/03/25 05:50:44;;;;;;;11.07;6.80;;;;;;;;;;5081361;28;21135;-73
2021/03/25 05:54:14;;;;;;;11.03;6.50;;;;;;;;;;5074496;28;21147;-73
2021/03/25 05:57:32;;;;;;;11.17;6.03;;;;;;;;;;5074207;28;21083;-73
2021/03/25 06:00:51;;;;;;;10.27;6.20;;;;;;;;;;5079354;28;20589;-74
2021/03/25 06:04:00;;;;;;;9.37;5.17;;;;;;;;;;5112816;28;20580;-75
2021/03/25 06:07:14;;;;;;;6.80;4.57;;;;;;;;;;5101798;28;20573;-74
2021/03/25 06:10:43;;;;;;;8.53;4.73;;;;;;;;;;5081356;28;20628;-74
2021/03/25 06:14:03;;;;;;;5.97;4.00;;;;;;;;;;5075767;28;20577;-75
2021/03/25 06:17:28;;;;;;;5.97;4.30;;;;;;;;;;5094293;28;20896;-75
2021/03/25 06:21:11;;;;;;;10.37;4.23;;;;;;;;;;5061481;28;20554;-74
2021/03/25 06:24:21;;;;;;;13.60;4.83;;;;;;;;;;5050230;28;20614;-74
2021/03/25 06:27:28;;;;;;;9.77;4.93;;;;;;;;;;5073556;28;20597;-74
2021/03/25 06:30:37;;;;;;;10.70;4.90;;;;;;;;;;5061809;28;20585;-74
2021/03/25 06:34:24;;;;;;;10.33;6.10;;;;;;;;;;5073744;28;20589;-75
2021/03/25 06:37:41;;;;;;;8.90;5.73;;;;;;;;;;5055479;28;21099;-75
2021/03/25 06:41:12;;;;;;;8.87;5.73;;;;;;;;;;5061284;28;20546;-75
2021/03/25 06:44:22;;;;;;;13.47;7.97;;;;;;;;;;5073679;28;20542;-75
2021/03/25 06:47:32;;;;;;;10.27;6.70;;;;;;;;;;5061572;28;20535;-75
2021/03/25 06:50:47;;;;;;;13.80;7.60;;;;;;;;;;5061085;28;20554;-74
2021/03/25 06:54:20;;;;;;;10.97;7.33;;;;;;;;;;5073518;28;20627;-75
2021/03/25 06:57:28;;;;;;;26.50;7.77;;;;;;;;;;5060868;28;20550;-75
2021/03/25 07:00:39;;;;;;;18.17;7.63;;;;;;;;;;5111911;22;20680;-73
2021/03/25 07:03:44;;;;;;;9.40;6.07;;;;;;;;;;5093606;28;20585;-73
2021/03/25 07:06:49;;;;;;;12.20;5.43;;;;;;;;;;5088649;28;20203;-73
2021/03/25 07:09:53;;;;;;;8.67;5.20;;;;;;;;;;5099281;28;20190;-73
2021/03/25 07:13:06;;;;;;;7.10;4.83;;;;;;;;;;5073763;28;20227;-73
2021/03/25 07:16:12;;;;;;;7.80;5.00;;;;;;;;;;5072808;28;20191;-72
2021/03/25 07:19:20;;;;;;;10.57;4.97;;;;;;;;;;5110219;28;20185;-73
2021/03/25 07:22:31;;;;;;;6.20;4.40;;;;;;;;;;5090555;28;20222;-73
2021/03/25 07:25:47;;;;;;;8.27;4.60;;;;;;;;;;5082533;28;20580;-74
2021/03/25 07:29:17;;;;;;;7.73;4.10;;;;;;;;;;5077829;28;20195;-72
2021/03/25 07:32:34;;;;;;;7.03;4.07;;;;;;;;;;5076133;28;20271;-73
2021/03/25 07:35:38;;;;;;;6.60;4.20;;;;;;;;;;5112697;28;20186;-73
2021/03/25 07:38:44;;;;;;;16.60;3.87;;;;;;;;;;5104213;28;20206;-73
2021/03/25 07:41:49;;;;;;;6.60;4.83;;;;;;;;;;5097295;28;20587;-73
2021/03/25 07:44:53;;;;;;;6.07;4.50;;;;;;;;;;5096969;28;20190;-73
2021/03/25 07:48:20;;;;;;;10.77;5.07;;;;;;;;;;5097183;28;20506;-73
2021/03/25 07:51:25;;;;;;;9.37;5.73;;;;;;;;;;5097159;28;20701;-74
2021/03/25 07:54:31;;;;;;;6.73;3.93;;;;;;;;;;5072473;28;20269;-74
2021/03/25 07:57:40;;;;;;;7.93;4.13;;;;;;;;;;5084295;28;20190;-74
2021/03/25 08:00:45;;;;;;;6.20;3.00;;;;;;;;;;5076228;28;20215;-74
2021/03/25 08:03:52;;;;;;;8.77;3.63;;;;;;;;;;5076360;28;20191;-74
2021/03/25 08:07:08;;;;;;;13.47;10.83;;;;;;;;;;5064043;28;20200;-74
2021/03/25 08:10:36;;;;;;;8.73;6.03;;;;;;;;;;5088705;28;20210;-73
2021/03/25 08:13:47;;;;;;;7.17;5.70;;;;;;;;;;5092879;28;20185;-74
2021/03/25 08:16:56;;;;;;;6.80;4.87;;;;;;;;;;5096701;28;20530;-74
2021/03/25 08:20:33;;;;;;;6.00;4.20;;;;;;;;;;5095760;28;20174;-74
2021/03/25 08:23:59;;;;;;;5.97;4.27;;;;;;;;;;5096470;28;20175;-74
2021/03/25 08:27:19;;;;;;;9.23;5.20;;;;;;;;;;5096087;28;20198;-74
2021/03/25 08:31:01;;;;;;;6.53;3.83;;;;;;;;;;5096173;28;20191;-72
2021/03/25 08:34:29;;;;;;;7.83;4.47;;;;;;;;;;5096291;28;20195;-77
2021/03/25 08:37:45;;;;;;;9.43;4.87;;;;;;;;;;5083238;28;20179;-77
2021/03/25 08:41:00;;;;;;;8.00;4.53;;;;;;;;;;5096446;28;20179;-77
2021/03/25 08:44:21;;;;;;;8.27;4.20;;;;;;;;;;5083481;28;20191;-77
2021/03/25 08:47:34;;;;;;;7.43;4.63;;;;;;;;;;5083932;28;20202;-77
2021/03/25 08:50:43;;;;;;;8.50;4.63;;;;;;;;;;5083476;28;20179;-77
2021/03/25 08:53:50;;;;;;;8.80;5.53;;;;;;;;;;5083191;28;20190;-77
2021/03/25 08:57:00;;;;;;;8.23;4.73;;;;;;;;;;5062660;28;20184;-77
2021/03/25 09:00:23;;;;;;;10.47;4.80;;;;;;;;;;5073807;28;20538;-77
2021/03/25 09:03:41;;;;;;;10.90;4.87;;;;;;;;;;5081628;28;20198;-73
2021/03/25 09:06:48;;;;;;;11.10;4.93;;;;;;;;;;5083025;28;20215;-72
2021/03/25 09:10:03;;;;;;;14.77;5.60;;;;;;;;;;5084743;28;20191;-72
2021/03/25 09:13:16;;;;;;;8.00;5.30;;;;;;;;;;5063003;28;20215;-73
2021/03/25 09:16:34;;;;;;;7.40;4.80;;;;;;;;;;5075175;28;20180;-73
2021/03/25 09:19:43;;;;;;;9.73;5.50;;;;;;;;;;5083206;28;20191;-72
2021/03/25 09:22:56;;;;;;;8.53;5.23;;;;;;;;;;5080686;28;20219;-72
2021/03/25 09:26:03;;;;;;;7.43;5.17;;;;;;;;;;5095551;28;20199;-73
2021/03/25 09:29:11;;;;;;;10.13;4.90;;;;;;;;;;5095340;28;20187;-72
2021/03/25 09:32:15;;;;;;;9.03;5.70;;;;;;;;;;5093795;28;20222;-72
2021/03/25 09:35:38;;;;;;;9.33;5.60;;;;;;;;;;5062449;28;20642;-73
2021/03/25 09:38:59;;;;;;;9.60;5.57;;;;;;;;;;5075872;28;20186;-72
2021/03/25 09:42:27;;;;;;;22.83;12.73;;;;;;;;;;5062501;28;20215;-72
2021/03/25 09:45:36;;;;;;;17.37;6.80;;;;;;;;;;5066916;28;20186;-72
2021/03/25 09:48:41;;;;;;;12.73;5.80;;;;;;;;;;5062401;28;20504;-72
2021/03/25 09:51:47;;;;;;;8.63;5.50;;;;;;;;;;5069944;28;20214;-71
2021/03/25 09:54:55;;;;;;;10.17;5.93;;;;;;;;;;5081752;28;20194;-72
2021/03/25 09:58:00;;;;;;;13.40;7.10;;;;;;;;;;5094476;28;20203;-72
2021/03/25 10:01:06;;;;;;;10.10;6.33;;;;;;;;;;5065340;28;20202;-72
2021/03/25 10:04:39;;;;;;;12.20;6.10;;;;;;;;;;5076281;28;20183;-72
2021/03/25 10:07:44;;;;;;;18.33;6.77;;;;;;;;;;5073902;28;20219;-72
2021/03/25 10:10:49;;;;;;;11.20;5.97;;;;;;;;;;5074135;28;20446;-72
2021/03/25 10:13:54;;;;;;;9.33;6.40;;;;;;;;;;5075058;28;20187;-72
2021/03/25 10:16:58;;;;;;;9.27;6.00;;;;;;;;;;5085492;28;20526;-72
2021/03/25 10:20:03;;;;;;;8.77;6.23;;;;;;;;;;5080853;28;20645;-72
2021/03/25 10:23:19;;;;;;;14.43;6.53;;;;;;;;;;5073679;28;20219;-72
2021/03/25 10:26:40;;;;;;;10.13;6.00;;;;;;;;;;5074695;28;20214;-71
2021/03/25 10:29:45;;;;;;;13.47;6.90;;;;;;;;;;5093927;28;20191;-71
2021/03/25 10:32:50;;;;;;;11.90;9.83;;;;;;;;;;5069051;28;20223;-71
2021/03/25 10:36:07;;;;;;;8.73;5.97;;;;;;;;;;5081030;28;20187;-71
2021/03/25 10:39:38;;;;;;;11.57;6.17;;;;;;;;;;5080067;28;20191;-71
2021/03/25 10:42:44;;;;;;;10.87;6.87;;;;;;;;;;5061057;28;20219;-72
2021/03/25 10:45:52;;;;;;;10.07;6.83;;;;;;;;;;5062515;28;20184;-72
2021/03/25 10:49:02;;;;;;;10.63;6.73;;;;;;;;;;5061261;28;20175;-71
2021/03/25 10:52:17;;;;;;;10.60;6.73;;;;;;;;;;5081344;28;20226;-72
2021/03/25 10:55:36;;;;;;;9.50;7.00;;;;;;;;;;5073485;28;20179;-72
2021/03/25 10:59:03;;;;;;;12.53;7.50;;;;;;;;;;5092887;28;20184;-71
2021/03/25 11:02:19;;;;;;;9.23;6.30;;;;;;;;;;5087384;28;20218;-72
2021/03/25 11:05:28;;;;;;;13.80;6.63;;;;;;;;;;5093669;28;20191;-73
2021/03/25 11:08:41;;;;;;;12.43;6.90;;;;;;;;;;5093540;28;20172;-71
2021/03/25 11:11:51;;;;;;;11.20;6.30;;;;;;;;;;5075271;28;20227;-71
2021/03/25 11:15:02;;;;;;;14.27;7.23;;;;;;;;;;5068168;28;20265;-72
2021/03/25 11:18:26;;;;;;;11.30;6.63;;;;;;;;;;5077126;28;20195;-71
2021/03/25 11:21:34;;;;;;;11.30;7.17;;;;;;;;;;5089339;28;20223;-72
2021/03/25 11:24:40;;;;;;;11.03;6.77;;;;;;;;;;5073221;28;20646;-72
2021/03/25 11:27:45;;;;;;;10.90;6.83;;;;;;;;;;5072849;28;20207;-73
2021/03/25 11:30:55;;;;;;;10.30;6.73;;;;;;;;;;5072886;28;20190;-72
2021/03/25 11:33:59;;;;;;;10.70;6.47;;;;;;;;;;5073015;28;20515;-73
2021/03/25 11:37:23;;;;;;;12.87;6.23;;;;;;;;;;5072803;28;20183;-73
2021/03/25 11:40:42;;;;;;;10.30;6.67;;;;;;;;;;5093271;28;20179;-73
2021/03/25 11:43:51;;;;;;;9.97;6.70;;;;;;;;;;5080447;28;20194;-73
2021/03/25 11:46:55;;;;;;;10.17;6.57;;;;;;;;;;5087954;28;20211;-70
2021/03/25 11:50:04;;;;;;;13.97;6.57;;;;;;;;;;5077410;28;20198;-75
2021/03/25 11:53:30;;;;;;;9.00;6.80;;;;;;;;;;5059925;28;20215;-75
2021/03/25 11:56:38;;;;;;;12.27;6.90;;;;;;;;;;5062928;28;20191;-75
2021/03/25 11:59:43;;;;;;;9.40;6.53;;;;;;;;;;5078514;28;20546;-75
2021/03/25 12:02:47;;;;;;;11.37;6.47;;;;;;;;;;5078616;28;20214;-75
2021/03/25 12:05:51;;;;;;;8.67;5.83;;;;;;;;;;5092813;28;20175;-76
2021/03/25 12:09:16;;;;;;;8.47;6.30;;;;;;;;;;5080469;28;20179;-76
2021/03/25 12:12:22;;;;;;;9.63;5.90;;;;;;;;;;5069536;28;20223;-73
2021/03/25 12:15:26;;;;;;;6.03;3.97;;;;;;;;;;5070094;28;20199;-70
2021/03/25 12:18:34;;;;;;;6.37;3.20;;;;;;;;;;5090234;28;20185;-70
2021/03/25 12:21:42;;;;;;;5.90;3.80;;;;;;;;;;5086749;28;20220;-70
2021/03/25 12:24:46;;;;;;;11.00;4.83;;;;;;;;;;5074784;28;20187;-73
2021/03/25 12:27:50;;;;;;;5.30;4.03;;;;;;;;;;5095272;28;20206;-74
2021/03/25 12:30:55;;;;;;;5.97;3.97;;;;;;;;;;5080115;28;20188;-73
2021/03/25 12:34:00;;;;;;;6.53;3.70;;;;;;;;;;5076192;28;20181;-74
2021/03/25 12:37:04;;;;;;;6.83;4.00;;;;;;;;;;5062487;28;20198;-73
2021/03/25 12:40:09;;;;;;;4.93;3.73;;;;;;;;;;5079228;28;20526;-73
2021/03/25 12:43:18;;;;;;;8.67;4.70;;;;;;;;;;5082772;28;20215;-73
2021/03/25 12:46:22;;;;;;;7.00;4.30;;;;;;;;;;5074721;28;20189;-73
2021/03/25 12:49:28;;;;;;;6.40;4.67;;;;;;;;;;5075996;28;20180;-73
2021/03/25 12:52:32;;;;;;;6.43;4.50;;;;;;;;;;5086685;28;20223;-74
2021/03/25 12:55:36;;;;;;;5.77;4.30;;;;;;;;;;5075735;28;20173;-74
2021/03/25 12:58:41;;;;;;;8.20;5.40;;;;;;;;;;5067289;28;20527;-73
2021/03/25 13:01:45;;;;;;;8.67;5.10;;;;;;;;;;5103170;22;20571;-73
2021/03/25 13:04:49;;;;;;;5.07;3.83;;;;;;;;;;5079688;28;20197;-73
2021/03/25 13:07:53;;;;;;;6.10;4.10;;;;;;;;;;5084040;28;20674;-73
2021/03/25 13:10:58;;;;;;;6.80;4.53;;;;;;;;;;5085378;28;20183;-74
2021/03/25 13:14:02;;;;;;;7.37;4.53;;;;;;;;;;5095668;28;20179;-74
2021/03/25 13:17:06;;;;;;;6.17;4.20;;;;;;;;;;5078886;28;20662;-74
2021/03/25 13:20:19;;;;;;;5.90;4.10;;;;;;;;;;5064075;28;20182;-74
2021/03/25 13:23:24;;;;;;;20.23;4.10;;;;;;;;;;5095395;28;20175;-74
2021/03/25 13:26:29;;;;;;;7.07;3.97;;;;;;;;;;5090460;28;20668;-74
2021/03/25 13:29:33;;;;;;;6.50;3.73;;;;;;;;;;5075099;28;20631;-74
2021/03/25 13:32:37;;;;;;;6.37;2.83;;;;;;;;;;5074841;28;20220;-74
2021/03/25 13:35:44;;;;;;;5.20;3.03;;;;;;;;;;5074168;28;20189;-74
2021/03/25 13:38:49;;;;;;;6.10;2.93;;;;;;;;;;5095160;28;20167;-74
2021/03/25 13:41:53;;;;;;;4.93;2.47;;;;;;;;;;5094712;28;20293;-74
2021/03/25 13:44:58;;;;;;;3.47;2.37;;;;;;;;;;5092394;28;20183;-73
2021/03/25 13:48:02;;;;;;;4.57;2.63;;;;;;;;;;5081375;28;20214;-73
2021/03/25 13:51:07;;;;;;;5.13;3.10;;;;;;;;;;5074321;28;20195;-74
2021/03/25 13:54:11;;;;;;;4.83;2.80;;;;;;;;;;5074355;28;20175;-74
2021/03/25 13:57:17;;;;;;;4.00;3.00;;;;;;;;;;5079333;28;20550;-74
2021/03/25 14:00:23;;;;;;;6.13;3.60;;;;;;;;;;5050588;28;20179;-75
2021/03/25 14:03:27;;;;;;;20.33;4.40;;;;;;;;;;5082442;28;20187;-73
2021/03/25 14:06:32;;;;;;;22.03;4.87;;;;;;;;;;5074282;28;20171;-74
2021/03/25 14:09:37;;;;;;;5.60;3.17;;;;;;;;;;5084510;28;20188;-74
2021/03/25 14:12:42;;;;;;;4.80;2.83;;;;;;;;;;5073792;28;20223;-74
2021/03/25 14:15:49;;;;;;;5.63;3.60;;;;;;;;;;5070242;28;20175;-74
2021/03/25 14:18:53;;;;;;;7.33;3.90;;;;;;;;;;5085421;28;20184;-73
2021/03/25 14:21:58;;;;;;;7.00;4.00;;;;;;;;;;5080121;28;20211;-73
2021/03/25 14:25:04;;;;;;;5.00;3.50;;;;;;;;;;5081563;28;20200;-74
2021/03/25 14:28:10;;;;;;;6.73;4.00;;;;;;;;;;5081721;28;20203;-74
2021/03/25 14:31:15;;;;;;;6.03;3.83;;;;;;;;;;5081674;28;20214;-74
2021/03/25 14:34:19;;;;;;;12.50;4.10;;;;;;;;;;5074141;28;20511;-74
2021/03/25 14:37:23;;;;;;;7.20;3.70;;;;;;;;;;5074671;28;20179;-74
2021/03/25 14:40:28;;;;;;;10.63;4.40;;;;;;;;;;5081278;28;20518;-74
2021/03/25 14:43:33;;;;;;;8.13;4.20;;;;;;;;;;5090366;28;20190;-74
2021/03/25 14:46:37;;;;;;;9.07;5.10;;;;;;;;;;5093642;28;20182;-74
2021/03/25 14:49:42;;;;;;;8.17;3.97;;;;;;;;;;5062117;28;20230;-74
2021/03/25 14:52:47;;;;;;;8.33;4.30;;;;;;;;;;5073247;28;20215;-74
2021/03/25 14:55:51;;;;;;;7.83;3.50;;;;;;;;;;5089721;28;20660;-73
2021/03/25 14:58:55;;;;;;;6.73;3.63;;;;;;;;;;5090529;28;20190;-73
2021/03/25 15:02:00;;;;;;;6.20;3.87;;;;;;;;;;5074100;28;20235;-73
2021/03/25 15:05:06;;;;;;;7.50;4.30;;;;;;;;;;5069419;28;20202;-73
2021/03/25 15:08:11;;;;;;;9.13;4.17;;;;;;;;;;5078819;28;20214;-73
2021/03/25 15:11:15;;;;;;;7.07;4.03;;;;;;;;;;5074357;28;20209;-73
2021/03/25 15:14:19;;;;;;;8.37;4.00;;;;;;;;;;5073141;28;20179;-74
2021/03/25 15:17:24;;;;;;;7.87;3.73;;;;;;;;;;5073604;28;20179;-74
2021/03/25 15:20:30;;;;;;;5.07;3.40;;;;;;;;;;5073323;28;20172;-74
2021/03/25 15:23:38;;;;;;;9.20;3.73;;;;;;;;;;5073005;28;20176;-73
2021/03/25 15:26:43;;;;;;;7.43;4.20;;;;;;;;;;5073070;28;20175;-74
2021/03/25 15:29:47;;;;;;;8.67;4.50;;;;;;;;;;5073121;28;20203;-74
2021/03/25 15:32:52;;;;;;;9.77;5.20;;;;;;;;;;5060602;28;20214;-74
2021/03/25 15:35:58;;;;;;;7.33;4.57;;;;;;;;;;5060580;28;20199;-74
2021/03/25 15:39:04;;;;;;;7.73;4.37;;;;;;;;;;5073234;28;20175;-74
2021/03/25 15:42:09;;;;;;;8.47;4.67;;;;;;;;;;5060523;28;20219;-73
2021/03/25 15:45:14;;;;;;;8.43;3.87;;;;;;;;;;5060749;28;20515;-73
2021/03/25 15:48:20;;;;;;;8.33;4.57;;;;;;;;;;5063524;28;20203;-73
2021/03/25 15:51:27;;;;;;;9.23;4.70;;;;;;;;;;5076652;28;20211;-74
2021/03/25 15:54:32;;;;;;;19.37;4.57;;;;;;;;;;5076921;28;20188;-73
2021/03/25 15:57:36;;;;;;;11.70;4.70;;;;;;;;;;5076627;28;20179;-73
2021/03/25 16:00:40;;;;;;;6.57;3.83;;;;;;;;;;5076675;28;20207;-74
2021/03/25 16:03:44;;;;;;;8.70;4.23;;;;;;;;;;5064492;28;20183;-73
2021/03/25 16:06:49;;;;;;;7.77;4.40;;;;;;;;;;5076518;28;20666;-74
2021/03/25 16:09:53;;;;;;;7.20;4.27;;;;;;;;;;5076787;28;20199;-74
2021/03/25 16:12:58;;;;;;;9.27;3.03;;;;;;;;;;5077017;28;20211;-74
2021/03/25 16:16:02;;;;;;;12.17;3.67;;;;;;;;;;5064124;28;20191;-74
2021/03/25 16:19:06;;;;;;;7.33;3.93;;;;;;;;;;5076399;28;20175;-74
2021/03/25 16:22:10;;;;;;;6.60;3.43;;;;;;;;;;5076408;28;20285;-74
2021/03/25 16:25:15;;;;;;;6.60;3.80;;;;;;;;;;5052612;28;20506;-74
2021/03/25 16:28:23;;;;;;;13.20;5.93;;;;;;;;;;5063923;28;20203;-74
2021/03/25 16:31:28;;;;;;;7.23;4.00;;;;;;;;;;5064559;28;20219;-73
2021/03/25 16:34:34;;;;;;;9.47;3.53;;;;;;;;;;5075972;28;20658;-73
2021/03/25 16:37:38;;;;;;;5.70;3.37;;;;;;;;;;5075963;28;20263;-74
2021/03/25 16:40:42;;;;;;;4.83;2.80;;;;;;;;;;5064527;28;20530;-74
2021/03/25 16:43:52;;;;;;;45.20;5.83;;;;;;;;;;5081920;28;20188;-73
2021/03/25 16:47:00;;;;;;;36.80;4.33;;;;;;;;;;5075853;28;20184;-73
2021/03/25 16:50:06;;;;;;;15.27;4.47;;;;;;;;;;5075360;28;20215;-73
2021/03/25 16:53:12;;;;;;;8.23;4.27;;;;;;;;;;5064313;28;20227;-73
2021/03/25 16:56:17;;;;;;;11.23;4.80;;;;;;;;;;5076942;28;20535;-74
2021/03/25 16:59:21;;;;;;;33.03;5.27;;;;;;;;;;5074840;28;20183;-74
2021/03/25 17:02:26;;;;;;;5.83;3.50;;;;;;;;;;5084745;28;20230;-74
2021/03/25 17:05:31;;;;;;;5.00;3.00;;;;;;;;;;5062934;28;20175;-74
2021/03/25 17:08:35;;;;;;;8.93;3.27;;;;;;;;;;5075876;28;20215;-72
2021/03/25 17:11:40;;;;;;;6.67;3.00;;;;;;;;;;5079793;28;20218;-73
2021/03/25 17:14:44;;;;;;;3.83;2.30;;;;;;;;;;5075029;28;20199;-73
2021/03/25 17:17:48;;;;;;;6.57;2.30;;;;;;;;;;5075046;28;20195;-73
2021/03/25 17:20:54;;;;;;;4.23;2.40;;;;;;;;;;5094082;28;20198;-73
2021/03/25 17:23:58;;;;;;;5.10;2.10;;;;;;;;;;5094704;28;20198;-73
2021/03/25 17:27:03;;;;;;;7.37;2.20;;;;;;;;;;5081262;28;20179;-73
2021/03/25 17:30:09;;;;;;;2.87;1.87;;;;;;;;;;5075123;28;20211;-73
2021/03/25 17:33:30;;;;;;;7.10;1.87;;;;;;;;;;5062605;28;20175;-73
2021/03/25 17:36:34;;;;;;;5.60;2.27;;;;;;;;;;5075698;28;20184;-72
2021/03/25 17:39:38;;;;;;;19.07;2.60;;;;;;;;;;5062297;28;20179;-73
2021/03/25 17:42:42;;;;;;;2.80;1.90;;;;;;;;;;5074508;28;20574;-73
2021/03/25 17:45:47;;;;;;;4.23;2.07;;;;;;;;;;5083992;28;20179;-73
2021/03/25 17:48:52;;;;;;;4.47;2.40;;;;;;;;;;5075930;28;20211;-73
2021/03/25 17:51:56;;;;;;;4.97;2.10;;;;;;;;;;5066982;28;20211;-73
2021/03/25 17:55:00;;;;;;;4.67;2.10;;;;;;;;;;5082242;28;20187;-73
2021/03/25 17:58:04;;;;;;;3.83;2.40;;;;;;;;;;5062015;28;20184;-72
2021/03/25 18:01:11;;;;;;;3.60;2.17;;;;;;;;;;5061895;28;20199;-73
2021/03/25 18:04:16;;;;;;;5.60;2.83;;;;;;;;;;5074300;28;20508;-73
2021/03/25 18:07:20;;;;;;;4.60;2.70;;;;;;;;;;5074478;28;20191;-73
2021/03/25 18:10:25;;;;;;;6.17;2.53;;;;;;;;;;5075247;28;20211;-72
2021/03/25 18:13:35;;;;;;;10.10;3.20;;;;;;;;;;5074101;28;20516;-73
2021/03/25 18:16:45;;;;;;;6.37;2.87;;;;;;;;;;5063638;28;20214;-72
2021/03/25 18:19:50;;;;;;;5.33;2.90;;;;;;;;;;5073889;28;20180;-73
2021/03/25 18:22:55;;;;;;;4.87;3.07;;;;;;;;;;5086959;28;20218;-73
2021/03/25 18:26:00;;;;;;;6.90;2.50;;;;;;;;;;5083094;28;20183;-72
2021/03/25 18:29:10;;;;;;;4.73;2.70;;;;;;;;;;5074012;28;20554;-72
2021/03/25 18:32:15;;;;;;;3.67;2.30;;;;;;;;;;5074149;28;20215;-73
2021/03/25 18:35:29;;;;;;;4.93;2.37;;;;;;;;;;5061398;28;20199;-73
2021/03/25 18:38:34;;;;;;;4.13;2.60;;;;;;;;;;5076584;28;20183;-72
2021/03/25 18:41:38;;;;;;;3.63;2.53;;;;;;;;;;5061093;28;20207;-73
2021/03/25 18:44:43;;;;;;;5.37;3.10;;;;;;;;;;5073475;28;20179;-73
2021/03/25 18:47:47;;;;;;;4.80;2.67;;;;;;;;;;5086685;28;20194;-73
2021/03/25 18:50:58;;;;;;;4.90;3.23;;;;;;;;;;5093408;28;20207;-73
2021/03/25 18:54:02;;;;;;;5.10;3.10;;;;;;;;;;5092930;28;20186;-73